sensor_id;sensor_type;location;lat;lon;timestamp;temperature;humidity
28835;DHT22;15969;51.536;11.884;2023-07-24T00:01:52;21.00;99.90
28835;DHT22;15969;51.536;11.884;2023-07-24T00:04:18;21.00;99.90
28835;DHT22;15969;51.536;11.884;2023-07-24T00:06:44;21.00;99.90
28835;DHT22;15969;51.536;11.884;2023-07-24T00:09:09;21.00;99.90
28835;DHT22;15969;51.536;11.884;2023-07-24T00:11:35;21.00;99.90
28835;DHT22;15969;51.536;11.884;2023-07-24T00:14:01;20.90;99.90
28835;DHT22;15969;51.536;11.884;2023-07-24T00:16:26;20.90;99.90
28835;DHT22;15969;51.536;11.884;2023-07-24T00:18:52;20.90;99.90
28835;DHT22;15969;51.536;11.884;2023-07-24T00:21:18;20.90;99.90
28835;DHT22;15969;51.536;11.884;2023-07-24T00:23:43;20.80;99.90
28835;DHT22;15969;51.536;11.884;2023-07-24T00:26:09;20.80;99.90
28835;DHT22;15969;51.536;11.884;2023-07-24T00:28:35;20.80;99.90
28835;DHT22;15969;51.536;11.884;2023-07-24T00:31:00;20.70;99.90
28835;DHT22;15969;51.536;11.884;2023-07-24T00:33:26;20.70;99.90
28835;DHT22;15969;51.536;11.884;2023-07-24T00:35:56;20.70;99.90
28835;DHT22;15969;51.536;11.884;2023-07-24T00:38:23;20.70;99.90
28835;DHT22;15969;51.536;11.884;2023-07-24T00:40:49;20.70;99.90
28835;DHT22;15969;51.536;11.884;2023-07-24T00:43:15;20.70;99.90
28835;DHT22;15969;51.536;11.884;2023-07-24T00:45:42;20.70;99.90
28835;DHT22;15969;51.536;11.884;2023-07-24T00:48:08;20.70;99.90
28835;DHT22;15969;51.536;11.884;2023-07-24T00:50:34;20.70;99.90
28835;DHT22;15969;51.536;11.884;2023-07-24T00:53:01;20.60;99.90
28835;DHT22;15969;51.536;11.884;2023-07-24T00:55:26;20.60;99.90
28835;DHT22;15969;51.536;11.884;2023-07-24T00:57:52;20.60;99.90
28835;DHT22;15969;51.536;11.884;2023-07-24T01:00:18;20.50;99.90
28835;DHT22;15969;51.536;11.884;2023-07-24T01:02:44;20.50;99.90
28835;DHT22;15969;51.536;11.884;2023-07-24T01:05:11;20.50;99.90
28835;DHT22;15969;51.536;11.884;2023-07-24T01:07:38;20.50;99.90
28835;DHT22;15969;51.536;11.884;2023-07-24T01:10:04;20.50;99.90
28835;DHT22;15969;51.536;11.884;2023-07-24T01:12:39;20.50;99.90
28835;DHT22;15969;51.536;11.884;2023-07-24T01:15:36;20.50;99.90
28835;DHT22;15969;51.536;11.884;2023-07-24T01:18:10;20.50;99.90
28835;DHT22;15969;51.536;11.884;2023-07-24T01:20:39;20.40;99.90
28835;DHT22;15969;51.536;11.884;2023-07-24T01:23:44;20.40;99.90
28835;DHT22;15969;51.536;11.884;2023-07-24T01:26:16;20.40;99.90
28835;DHT22;15969;51.536;11.884;2023-07-24T01:28:42;20.40;99.90
28835;DHT22;15969;51.536;11.884;2023-07-24T01:31:08;20.40;99.90
28835;DHT22;15969;51.536;11.884;2023-07-24T01:33:33;20.30;99.90
28835;DHT22;15969;51.536;11.884;2023-07-24T01:36:02;20.30;99.90
28835;DHT22;15969;51.536;11.884;2023-07-24T01:38:31;20.20;99.90
28835;DHT22;15969;51.536;11.884;2023-07-24T01:40:57;20.20;99.90
28835;DHT22;15969;51.536;11.884;2023-07-24T01:43:25;20.20;99.90
28835;DHT22;15969;51.536;11.884;2023-07-24T01:45:54;20.10;99.90
28835;DHT22;15969;51.536;11.884;2023-07-24T01:48:19;20.10;99.90
28835;DHT22;15969;51.536;11.884;2023-07-24T01:50:45;20.10;99.90
28835;DHT22;15969;51.536;11.884;2023-07-24T01:53:11;20.00;99.90
28835;DHT22;15969;51.536;11.884;2023-07-24T01:55:37;20.00;99.90
28835;DHT22;15969;51.536;11.884;2023-07-24T01:58:02;20.00;99.90
28835;DHT22;15969;51.536;11.884;2023-07-24T02:00:29;19.90;99.90
28835;DHT22;15969;51.536;11.884;2023-07-24T02:02:54;19.90;99.90
28835;DHT22;15969;51.536;11.884;2023-07-24T02:05:21;19.80;99.90
28835;DHT22;15969;51.536;11.884;2023-07-24T02:07:47;19.70;99.90
28835;DHT22;15969;51.536;11.884;2023-07-24T02:10:12;19.70;99.90
28835;DHT22;15969;51.536;11.884;2023-07-24T02:12:38;19.70;99.90
28835;DHT22;15969;51.536;11.884;2023-07-24T02:15:04;19.70;99.90
28835;DHT22;15969;51.536;11.884;2023-07-24T02:17:30;19.60;99.90
28835;DHT22;15969;51.536;11.884;2023-07-24T02:19:56;19.60;99.90
28835;DHT22;15969;51.536;11.884;2023-07-24T02:22:21;19.50;99.90
28835;DHT22;15969;51.536;11.884;2023-07-24T02:24:47;19.50;99.90
28835;DHT22;15969;51.536;11.884;2023-07-24T02:27:24;19.50;99.90
28835;DHT22;15969;51.536;11.884;2023-07-24T02:29:53;19.50;99.90
28835;DHT22;15969;51.536;11.884;2023-07-24T02:32:20;19.50;99.90
28835;DHT22;15969;51.536;11.884;2023-07-24T02:34:51;19.50;99.90
28835;DHT22;15969;51.536;11.884;2023-07-24T02:37:17;19.50;99.90
28835;DHT22;15969;51.536;11.884;2023-07-24T02:39:43;19.50;99.90
28835;DHT22;15969;51.536;11.884;2023-07-24T02:42:08;19.50;99.90
28835;DHT22;15969;51.536;11.884;2023-07-24T02:44:34;19.50;99.90
28835;DHT22;15969;51.536;11.884;2023-07-24T02:47:00;19.50;99.90
28835;DHT22;15969;51.536;11.884;2023-07-24T02:49:26;19.30;99.90
28835;DHT22;15969;51.536;11.884;2023-07-24T02:51:52;19.20;99.90
28835;DHT22;15969;51.536;11.884;2023-07-24T02:54:17;19.10;99.90
28835;DHT22;15969;51.536;11.884;2023-07-24T02:56:43;19.00;99.90
28835;DHT22;15969;51.536;11.884;2023-07-24T02:59:09;18.90;99.90
28835;DHT22;15969;51.536;11.884;2023-07-24T03:01:34;18.70;99.90
28835;DHT22;15969;51.536;11.884;2023-07-24T03:04:00;18.50;99.90
28835;DHT22;15969;51.536;11.884;2023-07-24T03:06:26;18.50;99.90
28835;DHT22;15969;51.536;11.884;2023-07-24T03:08:52;18.50;99.90
28835;DHT22;15969;51.536;11.884;2023-07-24T03:11:17;18.50;99.90
28835;DHT22;15969;51.536;11.884;2023-07-24T03:13:43;18.50;99.90
28835;DHT22;15969;51.536;11.884;2023-07-24T03:16:09;18.50;99.90
28835;DHT22;15969;51.536;11.884;2023-07-24T03:18:34;18.40;99.90
28835;DHT22;15969;51.536;11.884;2023-07-24T03:21:00;18.40;99.90
28835;DHT22;15969;51.536;11.884;2023-07-24T03:23:26;18.40;99.90
28835;DHT22;15969;51.536;11.884;2023-07-24T03:25:52;18.40;99.90
28835;DHT22;15969;51.536;11.884;2023-07-24T03:28:17;18.40;99.90
28835;DHT22;15969;51.536;11.884;2023-07-24T03:30:43;18.40;99.90
28835;DHT22;15969;51.536;11.884;2023-07-24T03:33:09;18.30;99.90
28835;DHT22;15969;51.536;11.884;2023-07-24T03:35:34;18.40;99.90
28835;DHT22;15969;51.536;11.884;2023-07-24T03:38:00;18.40;99.90
28835;DHT22;15969;51.536;11.884;2023-07-24T03:40:26;18.30;99.90
28835;DHT22;15969;51.536;11.884;2023-07-24T03:42:52;18.30;99.90
28835;DHT22;15969;51.536;11.884;2023-07-24T03:45:18;18.30;99.90
28835;DHT22;15969;51.536;11.884;2023-07-24T03:47:43;18.20;99.90
28835;DHT22;15969;51.536;11.884;2023-07-24T03:50:09;18.10;99.90
28835;DHT22;15969;51.536;11.884;2023-07-24T03:52:35;18.10;99.90
28835;DHT22;15969;51.536;11.884;2023-07-24T03:55:01;18.00;99.90
28835;DHT22;15969;51.536;11.884;2023-07-24T03:57:27;18.00;99.90
28835;DHT22;15969;51.536;11.884;2023-07-24T03:59:53;17.90;99.90
28835;DHT22;15969;51.536;11.884;2023-07-24T04:02:19;17.80;99.90
28835;DHT22;15969;51.536;11.884;2023-07-24T04:04:44;17.80;99.90
28835;DHT22;15969;51.536;11.884;2023-07-24T04:07:10;17.80;99.90
28835;DHT22;15969;51.536;11.884;2023-07-24T04:09:36;17.70;99.90
28835;DHT22;15969;51.536;11.884;2023-07-24T04:12:01;17.60;99.90
28835;DHT22;15969;51.536;11.884;2023-07-24T04:14:27;17.60;99.90
28835;DHT22;15969;51.536;11.884;2023-07-24T04:16:53;17.60;99.90
28835;DHT22;15969;51.536;11.884;2023-07-24T04:19:20;17.60;99.90
28835;DHT22;15969;51.536;11.884;2023-07-24T04:21:46;17.60;99.90
28835;DHT22;15969;51.536;11.884;2023-07-24T04:24:12;17.60;99.90
28835;DHT22;15969;51.536;11.884;2023-07-24T04:26:37;17.60;99.90
28835;DHT22;15969;51.536;11.884;2023-07-24T04:29:05;17.60;99.90
28835;DHT22;15969;51.536;11.884;2023-07-24T04:31:31;17.70;99.90
28835;DHT22;15969;51.536;11.884;2023-07-24T04:33:57;17.70;99.90
28835;DHT22;15969;51.536;11.884;2023-07-24T04:36:22;17.70;99.90
28835;DHT22;15969;51.536;11.884;2023-07-24T04:38:48;17.70;99.90
28835;DHT22;15969;51.536;11.884;2023-07-24T04:41:14;17.70;99.90
28835;DHT22;15969;51.536;11.884;2023-07-24T04:43:39;17.70;99.90
28835;DHT22;15969;51.536;11.884;2023-07-24T04:46:05;17.80;99.90
28835;DHT22;15969;51.536;11.884;2023-07-24T04:48:31;17.90;99.90
28835;DHT22;15969;51.536;11.884;2023-07-24T04:50:57;17.90;99.90
28835;DHT22;15969;51.536;11.884;2023-07-24T04:53:23;18.00;99.90
28835;DHT22;15969;51.536;11.884;2023-07-24T04:55:49;18.00;99.90
28835;DHT22;15969;51.536;11.884;2023-07-24T04:58:14;18.10;99.90
28835;DHT22;15969;51.536;11.884;2023-07-24T05:00:40;18.10;99.90
28835;DHT22;15969;51.536;11.884;2023-07-24T05:03:06;18.20;99.90
28835;DHT22;15969;51.536;11.884;2023-07-24T05:05:34;18.20;99.90
28835;DHT22;15969;51.536;11.884;2023-07-24T05:07:59;18.30;99.90
28835;DHT22;15969;51.536;11.884;2023-07-24T05:10:25;18.40;99.90
28835;DHT22;15969;51.536;11.884;2023-07-24T05:12:51;18.50;99.90
28835;DHT22;15969;51.536;11.884;2023-07-24T05:15:17;18.50;99.90
28835;DHT22;15969;51.536;11.884;2023-07-24T05:17:45;18.60;99.90
28835;DHT22;15969;51.536;11.884;2023-07-24T05:20:11;18.70;99.90
28835;DHT22;15969;51.536;11.884;2023-07-24T05:22:37;18.80;99.90
28835;DHT22;15969;51.536;11.884;2023-07-24T05:25:02;18.90;99.90
28835;DHT22;15969;51.536;11.884;2023-07-24T05:27:28;19.10;99.90
28835;DHT22;15969;51.536;11.884;2023-07-24T05:29:55;19.20;99.90
28835;DHT22;15969;51.536;11.884;2023-07-24T05:32:21;19.40;99.90
28835;DHT22;15969;51.536;11.884;2023-07-24T05:34:46;19.50;99.90
28835;DHT22;15969;51.536;11.884;2023-07-24T05:37:12;19.70;99.90
28835;DHT22;15969;51.536;11.884;2023-07-24T05:39:38;19.80;99.90
28835;DHT22;15969;51.536;11.884;2023-07-24T05:42:04;20.00;99.90
28835;DHT22;15969;51.536;11.884;2023-07-24T05:44:29;20.20;99.90
28835;DHT22;15969;51.536;11.884;2023-07-24T05:46:55;20.30;99.90
28835;DHT22;15969;51.536;11.884;2023-07-24T05:49:21;20.50;99.90
28835;DHT22;15969;51.536;11.884;2023-07-24T05:51:46;20.70;99.90
28835;DHT22;15969;51.536;11.884;2023-07-24T05:54:12;20.80;99.90
28835;DHT22;15969;51.536;11.884;2023-07-24T05:56:38;20.90;99.90
28835;DHT22;15969;51.536;11.884;2023-07-24T05:59:03;21.00;99.90
28835;DHT22;15969;51.536;11.884;2023-07-24T06:01:29;21.10;99.90
28835;DHT22;15969;51.536;11.884;2023-07-24T06:03:55;21.30;99.90
28835;DHT22;15969;51.536;11.884;2023-07-24T06:06:20;21.40;99.90
28835;DHT22;15969;51.536;11.884;2023-07-24T06:08:46;21.50;99.90
28835;DHT22;15969;51.536;11.884;2023-07-24T06:11:13;21.50;99.90
28835;DHT22;15969;51.536;11.884;2023-07-24T06:13:38;21.50;99.90
28835;DHT22;15969;51.536;11.884;2023-07-24T06:16:04;21.50;99.90
28835;DHT22;15969;51.536;11.884;2023-07-24T06:18:30;21.60;99.90
28835;DHT22;15969;51.536;11.884;2023-07-24T06:20:55;21.70;99.90
28835;DHT22;15969;51.536;11.884;2023-07-24T06:23:21;21.80;99.90
28835;DHT22;15969;51.536;11.884;2023-07-24T06:25:47;21.90;99.90
28835;DHT22;15969;51.536;11.884;2023-07-24T06:28:12;22.00;99.90
28835;DHT22;15969;51.536;11.884;2023-07-24T06:30:38;22.10;99.90
28835;DHT22;15969;51.536;11.884;2023-07-24T06:33:04;22.20;99.90
28835;DHT22;15969;51.536;11.884;2023-07-24T06:35:30;22.30;99.90
28835;DHT22;15969;51.536;11.884;2023-07-24T06:37:56;22.40;99.90
28835;DHT22;15969;51.536;11.884;2023-07-24T06:40:22;22.50;99.90
28835;DHT22;15969;51.536;11.884;2023-07-24T06:42:47;22.50;99.90
28835;DHT22;15969;51.536;11.884;2023-07-24T06:45:13;22.60;99.90
28835;DHT22;15969;51.536;11.884;2023-07-24T06:47:39;22.70;99.90
28835;DHT22;15969;51.536;11.884;2023-07-24T06:50:05;22.70;99.90
28835;DHT22;15969;51.536;11.884;2023-07-24T06:52:32;22.70;99.90
28835;DHT22;15969;51.536;11.884;2023-07-24T06:54:58;22.70;99.90
28835;DHT22;15969;51.536;11.884;2023-07-24T06:57:24;22.80;99.90
28835;DHT22;15969;51.536;11.884;2023-07-24T06:59:50;22.80;99.90
28835;DHT22;15969;51.536;11.884;2023-07-24T07:02:16;22.80;99.90
28835;DHT22;15969;51.536;11.884;2023-07-24T07:04:41;22.80;99.90
28835;DHT22;15969;51.536;11.884;2023-07-24T07:07:07;22.80;99.90
28835;DHT22;15969;51.536;11.884;2023-07-24T07:09:33;22.80;99.90
28835;DHT22;15969;51.536;11.884;2023-07-24T07:11:58;22.80;99.90
28835;DHT22;15969;51.536;11.884;2023-07-24T07:14:24;22.80;99.90
28835;DHT22;15969;51.536;11.884;2023-07-24T07:16:50;22.80;99.90
28835;DHT22;15969;51.536;11.884;2023-07-24T07:19:16;22.90;99.90
28835;DHT22;15969;51.536;11.884;2023-07-24T07:21:41;22.90;99.90
28835;DHT22;15969;51.536;11.884;2023-07-24T07:24:07;23.00;99.90
28835;DHT22;15969;51.536;11.884;2023-07-24T07:26:33;23.00;99.90
28835;DHT22;15969;51.536;11.884;2023-07-24T07:28:59;23.10;99.90
28835;DHT22;15969;51.536;11.884;2023-07-24T07:31:25;23.10;99.90
28835;DHT22;15969;51.536;11.884;2023-07-24T07:33:50;23.20;99.90
28835;DHT22;15969;51.536;11.884;2023-07-24T07:36:16;23.20;99.90
28835;DHT22;15969;51.536;11.884;2023-07-24T07:38:43;23.20;99.90
28835;DHT22;15969;51.536;11.884;2023-07-24T07:41:09;23.30;99.90
28835;DHT22;15969;51.536;11.884;2023-07-24T07:43:35;23.30;99.90
28835;DHT22;15969;51.536;11.884;2023-07-24T07:46:02;23.40;99.90
28835;DHT22;15969;51.536;11.884;2023-07-24T07:48:28;23.40;99.90
28835;DHT22;15969;51.536;11.884;2023-07-24T07:50:55;23.40;99.90
28835;DHT22;15969;51.536;11.884;2023-07-24T07:53:20;23.50;99.90
28835;DHT22;15969;51.536;11.884;2023-07-24T07:55:46;23.50;99.90
28835;DHT22;15969;51.536;11.884;2023-07-24T07:58:12;23.60;99.90
28835;DHT22;15969;51.536;11.884;2023-07-24T08:00:37;23.60;99.90
28835;DHT22;15969;51.536;11.884;2023-07-24T08:03:06;23.60;99.90
28835;DHT22;15969;51.536;11.884;2023-07-24T08:05:32;23.70;99.90
28835;DHT22;15969;51.536;11.884;2023-07-24T08:07:58;23.80;99.90
28835;DHT22;15969;51.536;11.884;2023-07-24T08:10:23;23.90;99.90
28835;DHT22;15969;51.536;11.884;2023-07-24T08:12:49;23.90;99.90
28835;DHT22;15969;51.536;11.884;2023-07-24T08:15:15;24.10;99.90
28835;DHT22;15969;51.536;11.884;2023-07-24T08:17:41;24.10;99.90
28835;DHT22;15969;51.536;11.884;2023-07-24T08:20:06;24.20;99.90
28835;DHT22;15969;51.536;11.884;2023-07-24T08:22:32;24.20;99.90
28835;DHT22;15969;51.536;11.884;2023-07-24T08:24:58;24.40;99.90
28835;DHT22;15969;51.536;11.884;2023-07-24T08:27:24;24.40;99.90
28835;DHT22;15969;51.536;11.884;2023-07-24T08:29:52;24.60;99.50
28835;DHT22;15969;51.536;11.884;2023-07-24T08:32:19;24.70;99.30
28835;DHT22;15969;51.536;11.884;2023-07-24T08:34:45;24.70;98.90
28835;DHT22;15969;51.536;11.884;2023-07-24T08:37:11;24.80;98.30
28835;DHT22;15969;51.536;11.884;2023-07-24T08:39:37;25.00;98.10
28835;DHT22;15969;51.536;11.884;2023-07-24T08:42:11;25.00;97.80
28835;DHT22;15969;51.536;11.884;2023-07-24T08:44:38;25.10;98.30
28835;DHT22;15969;51.536;11.884;2023-07-24T08:47:04;25.20;98.00
28835;DHT22;15969;51.536;11.884;2023-07-24T08:49:33;25.30;97.60
28835;DHT22;15969;51.536;11.884;2023-07-24T08:52:01;25.40;96.70
28835;DHT22;15969;51.536;11.884;2023-07-24T08:54:27;25.50;96.50
28835;DHT22;15969;51.536;11.884;2023-07-24T08:56:53;25.60;96.40
28835;DHT22;15969;51.536;11.884;2023-07-24T08:59:19;25.60;95.60
28835;DHT22;15969;51.536;11.884;2023-07-24T09:01:44;25.70;95.30
28835;DHT22;15969;51.536;11.884;2023-07-24T09:04:10;25.80;95.50
28835;DHT22;15969;51.536;11.884;2023-07-24T09:06:37;25.80;95.20
28835;DHT22;15969;51.536;11.884;2023-07-24T09:09:12;25.80;95.40
28835;DHT22;15969;51.536;11.884;2023-07-24T09:11:50;25.90;94.80
28835;DHT22;15969;51.536;11.884;2023-07-24T09:14:25;26.00;95.10
28835;DHT22;15969;51.536;11.884;2023-07-24T09:17:09;26.10;93.80
28835;DHT22;15969;51.536;11.884;2023-07-24T09:19:36;26.20;93.80
28835;DHT22;15969;51.536;11.884;2023-07-24T09:22:28;26.30;94.30
28835;DHT22;15969;51.536;11.884;2023-07-24T09:24:55;26.30;93.60
28835;DHT22;15969;51.536;11.884;2023-07-24T09:27:26;26.40;92.80
28835;DHT22;15969;51.536;11.884;2023-07-24T09:29:53;26.40;92.80
28835;DHT22;15969;51.536;11.884;2023-07-24T09:32:27;26.50;92.90
28835;DHT22;15969;51.536;11.884;2023-07-24T09:34:53;26.60;93.50
28835;DHT22;15969;51.536;11.884;2023-07-24T09:37:27;26.70;92.50
28835;DHT22;15969;51.536;11.884;2023-07-24T09:39:55;26.90;92.10
28835;DHT22;15969;51.536;11.884;2023-07-24T09:42:28;27.00;92.10
28835;DHT22;15969;51.536;11.884;2023-07-24T09:44:55;27.10;91.50
28835;DHT22;15969;51.536;11.884;2023-07-24T09:47:21;26.90;90.80
28835;DHT22;15969;51.536;11.884;2023-07-24T09:49:47;26.80;91.20
28835;DHT22;15969;51.536;11.884;2023-07-24T09:52:13;26.70;91.20
28835;DHT22;15969;51.536;11.884;2023-07-24T09:55:09;26.60;91.10
28835;DHT22;15969;51.536;11.884;2023-07-24T09:57:37;26.60;91.00
28835;DHT22;15969;51.536;11.884;2023-07-24T10:00:03;26.70;91.60
28835;DHT22;15969;51.536;11.884;2023-07-24T10:02:29;26.80;90.90
28835;DHT22;15969;51.536;11.884;2023-07-24T10:04:56;27.00;90.50
28835;DHT22;15969;51.536;11.884;2023-07-24T10:07:22;27.10;90.40
28835;DHT22;15969;51.536;11.884;2023-07-24T10:12:20;27.20;94.20
28835;DHT22;15969;51.536;11.884;2023-07-24T10:14:46;27.10;90.30
28835;DHT22;15969;51.536;11.884;2023-07-24T10:17:13;27.10;90.30
28835;DHT22;15969;51.536;11.884;2023-07-24T10:19:42;27.00;90.20
28835;DHT22;15969;51.536;11.884;2023-07-24T10:22:18;27.00;90.20
28835;DHT22;15969;51.536;11.884;2023-07-24T10:24:47;26.90;90.30
28835;DHT22;15969;51.536;11.884;2023-07-24T10:27:13;27.00;90.00
28835;DHT22;15969;51.536;11.884;2023-07-24T10:29:39;26.90;89.50
28835;DHT22;15969;51.536;11.884;2023-07-24T10:32:16;26.90;89.80
28835;DHT22;15969;51.536;11.884;2023-07-24T10:34:43;26.90;90.00
28835;DHT22;15969;51.536;11.884;2023-07-24T10:37:09;26.90;89.20
28835;DHT22;15969;51.536;11.884;2023-07-24T10:39:41;27.00;89.00
28835;DHT22;15969;51.536;11.884;2023-07-24T10:42:11;27.00;88.90
28835;DHT22;15969;51.536;11.884;2023-07-24T10:44:37;27.00;88.70
28835;DHT22;15969;51.536;11.884;2023-07-24T10:47:03;27.00;90.60
28835;DHT22;15969;51.536;11.884;2023-07-24T10:49:29;27.10;89.20
28835;DHT22;15969;51.536;11.884;2023-07-24T10:51:56;27.30;89.60
28835;DHT22;15969;51.536;11.884;2023-07-24T10:54:22;27.30;88.70
28835;DHT22;15969;51.536;11.884;2023-07-24T10:56:48;27.40;89.10
28835;DHT22;15969;51.536;11.884;2023-07-24T10:59:14;27.40;88.50
28835;DHT22;15969;51.536;11.884;2023-07-24T11:01:40;27.60;86.60
28835;DHT22;15969;51.536;11.884;2023-07-24T11:06:33;27.80;85.70
28835;DHT22;15969;51.536;11.884;2023-07-24T11:08:59;27.70;86.40
28835;DHT22;15969;51.536;11.884;2023-07-24T11:11:33;27.80;87.00
28835;DHT22;15969;51.536;11.884;2023-07-24T11:16:27;28.00;82.30
28835;DHT22;15969;51.536;11.884;2023-07-24T11:21:24;28.10;82.20
28835;DHT22;15969;51.536;11.884;2023-07-24T11:23:52;28.10;80.90
28835;DHT22;15969;51.536;11.884;2023-07-24T11:33:46;28.40;81.00
28835;DHT22;15969;51.536;11.884;2023-07-24T11:36:14;28.40;82.50
28835;DHT22;15969;51.536;11.884;2023-07-24T11:38:40;28.40;82.90
28835;DHT22;15969;51.536;11.884;2023-07-24T11:41:08;28.40;81.60
28835;DHT22;15969;51.536;11.884;2023-07-24T11:43:34;28.40;81.50
28835;DHT22;15969;51.536;11.884;2023-07-24T11:46:00;28.30;79.60
28835;DHT22;15969;51.536;11.884;2023-07-24T11:48:25;28.20;81.90
28835;DHT22;15969;51.536;11.884;2023-07-24T11:50:55;28.20;81.20
28835;DHT22;15969;51.536;11.884;2023-07-24T11:53:30;28.20;81.40
28835;DHT22;15969;51.536;11.884;2023-07-24T11:55:58;28.20;79.40
28835;DHT22;15969;51.536;11.884;2023-07-24T11:58:30;28.20;80.20
28835;DHT22;15969;51.536;11.884;2023-07-24T12:00:56;28.20;81.30
28835;DHT22;15969;51.536;11.884;2023-07-24T12:03:25;28.20;80.70
28835;DHT22;15969;51.536;11.884;2023-07-24T12:05:51;28.30;80.80
28835;DHT22;15969;51.536;11.884;2023-07-24T12:08:29;28.30;79.60
28835;DHT22;15969;51.536;11.884;2023-07-24T12:10:56;28.30;79.00
28835;DHT22;15969;51.536;11.884;2023-07-24T12:13:21;28.20;79.10
28835;DHT22;15969;51.536;11.884;2023-07-24T12:15:48;28.20;81.10
28835;DHT22;15969;51.536;11.884;2023-07-24T12:18:14;28.20;81.00
28835;DHT22;15969;51.536;11.884;2023-07-24T12:20:40;28.10;80.30
28835;DHT22;15969;51.536;11.884;2023-07-24T12:23:06;28.00;80.00
28835;DHT22;15969;51.536;11.884;2023-07-24T12:25:32;27.90;78.80
28835;DHT22;15969;51.536;11.884;2023-07-24T12:27:57;27.80;79.10
28835;DHT22;15969;51.536;11.884;2023-07-24T12:30:23;27.60;80.60
28835;DHT22;15969;51.536;11.884;2023-07-24T12:32:49;27.50;80.90
28835;DHT22;15969;51.536;11.884;2023-07-24T12:35:15;27.50;80.80
28835;DHT22;15969;51.536;11.884;2023-07-24T12:37:42;27.40;80.80
28835;DHT22;15969;51.536;11.884;2023-07-24T12:40:09;27.30;81.70
28835;DHT22;15969;51.536;11.884;2023-07-24T12:42:35;27.30;80.80
28835;DHT22;15969;51.536;11.884;2023-07-24T12:45:01;27.20;81.40
28835;DHT22;15969;51.536;11.884;2023-07-24T12:47:31;27.20;81.80
28835;DHT22;15969;51.536;11.884;2023-07-24T12:49:57;27.20;82.00
28835;DHT22;15969;51.536;11.884;2023-07-24T12:52:24;27.30;82.00
28835;DHT22;15969;51.536;11.884;2023-07-24T12:54:50;27.10;81.60
28835;DHT22;15969;51.536;11.884;2023-07-24T12:57:16;27.10;82.70
28835;DHT22;15969;51.536;11.884;2023-07-24T12:59:42;27.10;83.20
28835;DHT22;15969;51.536;11.884;2023-07-24T13:02:07;27.20;83.60
28835;DHT22;15969;51.536;11.884;2023-07-24T13:04:33;27.20;84.00
28835;DHT22;15969;51.536;11.884;2023-07-24T13:06:59;27.10;82.60
28835;DHT22;15969;51.536;11.884;2023-07-24T13:09:26;27.20;82.90
28835;DHT22;15969;51.536;11.884;2023-07-24T13:11:52;27.20;83.20
28835;DHT22;15969;51.536;11.884;2023-07-24T13:14:20;27.30;83.10
28835;DHT22;15969;51.536;11.884;2023-07-24T13:16:46;27.40;83.10
28835;DHT22;15969;51.536;11.884;2023-07-24T13:19:12;27.60;83.80
28835;DHT22;15969;51.536;11.884;2023-07-24T13:21:38;27.80;83.20
28835;DHT22;15969;51.536;11.884;2023-07-24T13:24:05;27.80;83.20
28835;DHT22;15969;51.536;11.884;2023-07-24T13:26:32;27.90;83.00
28835;DHT22;15969;51.536;11.884;2023-07-24T13:28:57;27.90;83.00
28835;DHT22;15969;51.536;11.884;2023-07-24T13:31:23;28.00;81.30
28835;DHT22;15969;51.536;11.884;2023-07-24T13:33:49;28.00;81.30
28835;DHT22;15969;51.536;11.884;2023-07-24T13:36:15;28.10;81.40
28835;DHT22;15969;51.536;11.884;2023-07-24T13:38:41;28.00;80.10
28835;DHT22;15969;51.536;11.884;2023-07-24T13:41:07;28.10;81.40
28835;DHT22;15969;51.536;11.884;2023-07-24T13:43:34;28.10;81.50
28835;DHT22;15969;51.536;11.884;2023-07-24T13:46:00;28.20;82.40
28835;DHT22;15969;51.536;11.884;2023-07-24T13:48:28;28.20;83.70
28835;DHT22;15969;51.536;11.884;2023-07-24T13:50:53;28.30;83.20
28835;DHT22;15969;51.536;11.884;2023-07-24T13:53:20;28.40;82.50
28835;DHT22;15969;51.536;11.884;2023-07-24T13:58:13;28.40;81.90
28835;DHT22;15969;51.536;11.884;2023-07-24T14:00:38;28.40;81.00
28835;DHT22;15969;51.536;11.884;2023-07-24T14:03:04;28.40;81.10
28835;DHT22;15969;51.536;11.884;2023-07-24T14:05:30;28.30;81.30
28835;DHT22;15969;51.536;11.884;2023-07-24T14:07:55;28.40;84.00
28835;DHT22;15969;51.536;11.884;2023-07-24T14:10:21;28.40;82.70
28835;DHT22;15969;51.536;11.884;2023-07-24T14:12:47;28.40;82.20
28835;DHT22;15969;51.536;11.884;2023-07-24T14:15:12;28.50;82.40
28835;DHT22;15969;51.536;11.884;2023-07-24T14:17:38;28.50;81.70
28835;DHT22;15969;51.536;11.884;2023-07-24T14:20:05;28.60;82.30
28835;DHT22;15969;51.536;11.884;2023-07-24T14:29:49;28.60;81.10
28835;DHT22;15969;51.536;11.884;2023-07-24T14:32:15;28.50;83.00
28835;DHT22;15969;51.536;11.884;2023-07-24T14:34:41;28.50;83.40
28835;DHT22;15969;51.536;11.884;2023-07-24T14:37:07;28.40;81.50
28835;DHT22;15969;51.536;11.884;2023-07-24T14:39:33;28.50;82.80
28835;DHT22;15969;51.536;11.884;2023-07-24T14:44:26;28.90;81.10
28835;DHT22;15969;51.536;11.884;2023-07-24T14:49:17;29.10;79.00
28835;DHT22;15969;51.536;11.884;2023-07-24T14:51:43;29.20;81.30
28835;DHT22;15969;51.536;11.884;2023-07-24T14:54:09;29.30;81.90
28835;DHT22;15969;51.536;11.884;2023-07-24T14:56:34;29.50;80.00
28835;DHT22;15969;51.536;11.884;2023-07-24T14:59:00;29.50;79.60
28835;DHT22;15969;51.536;11.884;2023-07-24T15:01:26;29.40;79.20
28835;DHT22;15969;51.536;11.884;2023-07-24T15:03:54;29.20;79.10
28835;DHT22;15969;51.536;11.884;2023-07-24T15:06:21;29.00;79.10
28835;DHT22;15969;51.536;11.884;2023-07-24T15:08:47;29.00;79.60
28835;DHT22;15969;51.536;11.884;2023-07-24T15:11:12;28.90;79.00
28835;DHT22;15969;51.536;11.884;2023-07-24T15:13:38;28.90;80.20
28835;DHT22;15969;51.536;11.884;2023-07-24T15:16:04;28.90;79.80
28835;DHT22;15969;51.536;11.884;2023-07-24T15:18:30;28.80;80.80
28835;DHT22;15969;51.536;11.884;2023-07-24T15:20:55;28.80;80.10
28835;DHT22;15969;51.536;11.884;2023-07-24T15:23:21;28.90;81.10
28835;DHT22;15969;51.536;11.884;2023-07-24T15:25:47;29.20;82.40
28835;DHT22;15969;51.536;11.884;2023-07-24T15:28:13;29.40;79.70
28835;DHT22;15969;51.536;11.884;2023-07-24T15:30:39;29.50;79.60
28835;DHT22;15969;51.536;11.884;2023-07-24T15:33:04;29.40;78.70
28835;DHT22;15969;51.536;11.884;2023-07-24T15:35:30;29.30;79.00
28835;DHT22;15969;51.536;11.884;2023-07-24T15:37:56;29.20;79.10
28835;DHT22;15969;51.536;11.884;2023-07-24T15:40:21;29.00;78.20
28835;DHT22;15969;51.536;11.884;2023-07-24T15:42:47;28.90;80.60
28835;DHT22;15969;51.536;11.884;2023-07-24T15:45:13;28.80;79.60